Four Corners, Wyoming
Current Conditions -  °F | °C
As of 7:55 PM on Monday 22 Dec 2014 (Local Time) from KECS Reporting Station
Light Snow Light Snow  
Wind Chill: 16°   Ceiling: 1100
Heat Index: 30°   Visibility: 7mi
Dew Point: 25°   Wind: 24mph
Humidity: 80%   Direction: 320°NW
Pressure: 29.74"   Gusts: 35mph
Location:  44.08°N, 104.14°W
Report Text: KECS 230255Z AUTO 32021G30KT 7SM -SN SCT007 OVC011 M01/M04 A2974 RMK AO2
Loading
Personal Weather Stations






























Interactive Weather Map New forecast layout! Learn more

10-Day Weather Forecast

Advertisements
Track Severe Weather on mobile